Time;durP1;ratioP1;P1;durP2;ratioP2;P2;SDS_P1;SDS_P2;PMS_P1;PMS_P2;Temp;Humidity;BMP_temperature;BMP_pressure;BME280_temperature;BME280_humidity;BME280_pressure;Samples;Min_cycle;Max_cycle;Signal;HPM_P1;HPM_P2
2023/03/19 00:00:08;;;;;;;4.43;2.83;;;9.50;97.30;;;;;;5019461;28;20452;-85
2023/03/19 00:02:34;;;;;;;3.70;3.50;;;9.40;97.30;;;;;;5030924;28;20770;-86
2023/03/19 00:05:04;;;;;;;7.67;3.87;;;9.30;97.30;;;;;;5046386;28;20416;-85
2023/03/19 00:07:33;;;;;;;7.53;4.70;;;9.20;97.30;;;;;;5029125;28;20443;-85
2023/03/19 00:10:05;;;;;;;5.83;3.60;;;9.10;97.30;;;;;;5016720;28;20484;-85
2023/03/19 00:12:33;;;;;;;6.07;4.87;;;9.10;97.30;;;;;;5027711;28;20418;-83
2023/03/19 00:15:45;;;;;;;4.83;3.97;;;9.10;97.30;;;;;;5026379;28;20527;-85
2023/03/19 00:18:14;;;;;;;5.37;4.10;;;9.10;97.30;;;;;;5022317;28;20466;-84
2023/03/19 00:20:42;;;;;;;5.93;4.77;;;9.20;97.30;;;;;;5021338;28;20455;-86
2023/03/19 00:23:11;;;;;;;12.60;5.10;;;9.20;97.30;;;;;;5023444;28;21042;-86
2023/03/19 00:25:36;;;;;;;4.80;3.33;;;9.10;97.30;;;;;;5018083;28;20443;-86
2023/03/19 00:28:32;;;;;;;10.30;6.00;;;9.10;97.30;;;;;;5028493;28;21121;-84
2023/03/19 00:31:44;;;;;;;8.27;6.23;;;9.10;97.30;;;;;;5022446;28;20743;-85
2023/03/19 00:34:17;;;;;;;4.47;4.20;;;9.10;97.30;;;;;;5019619;28;20424;-85
2023/03/19 00:36:42;;;;;;;7.80;3.67;;;9.10;97.30;;;;;;5024245;28;20474;-85
2023/03/19 00:39:14;;;;;;;4.37;3.90;;;9.10;97.30;;;;;;5010028;28;20444;-85
2023/03/19 00:45:15;;;;;;;8.80;4.10;;;9.20;97.30;;;;;;4962540;28;20528;-86
2023/03/19 00:47:43;;;;;;;12.77;5.07;;;9.20;97.30;;;;;;4968373;28;20520;-85
2023/03/19 00:50:11;;;;;;;6.87;4.93;;;9.20;97.30;;;;;;4992578;28;20415;-85
2023/03/19 00:52:37;;;;;;;10.73;4.67;;;9.30;97.30;;;;;;5028961;28;20455;-85
2023/03/19 00:55:03;;;;;;;6.47;4.10;;;9.30;97.30;;;;;;5025281;28;20459;-86
2023/03/19 00:57:28;;;;;;;4.17;3.70;;;9.30;97.30;;;;;;5021240;28;20208;-86
2023/03/19 00:59:54;;;;;;;8.73;5.80;;;9.30;97.30;;;;;;5023886;28;20459;-86
2023/03/19 01:02:19;;;;;;;4.50;3.20;;;9.30;97.30;;;;;;5017463;28;20169;-85
2023/03/19 01:04:48;;;;;;;11.00;5.93;;;9.30;97.30;;;;;;5023061;28;20702;-86
2023/03/19 01:07:13;;;;;;;7.90;3.90;;;9.20;97.30;;;;;;5026727;28;20180;-86
2023/03/19 01:09:39;;;;;;;6.20;3.80;;;9.20;97.30;;;;;;5021280;28;20432;-86
2023/03/19 01:12:06;;;;;;;3.60;3.40;;;9.20;97.30;;;;;;5020685;28;20188;-86
2023/03/19 01:14:31;;;;;;;6.70;3.73;;;9.20;97.30;;;;;;5021143;28;20415;-86
2023/03/19 01:16:57;;;;;;;7.80;4.43;;;9.20;97.30;;;;;;5012507;28;20412;-86
2023/03/19 01:19:22;;;;;;;3.73;3.53;;;9.20;97.30;;;;;;5027608;28;20239;-86
2023/03/19 01:21:48;;;;;;;6.90;4.97;;;9.10;97.30;;;;;;5020500;28;20432;-86
2023/03/19 01:24:15;;;;;;;4.80;4.53;;;9.10;97.30;;;;;;5024778;28;20177;-86
2023/03/19 01:26:41;;;;;;;6.43;3.93;;;9.10;97.30;;;;;;5022650;28;20173;-86
2023/03/19 01:29:07;;;;;;;9.40;4.53;;;9.00;97.30;;;;;;5020650;28;20439;-86
2023/03/19 01:31:33;;;;;;;3.80;3.60;;;9.00;97.30;;;;;;5028328;28;20913;-86
2023/03/19 01:33:59;;;;;;;2.40;2.20;;;9.00;97.30;;;;;;5026100;28;20964;-86
2023/03/19 01:36:25;;;;;;;5.03;4.30;;;9.00;97.30;;;;;;5025803;28;20419;-85
2023/03/19 01:38:53;;;;;;;6.30;4.30;;;9.00;97.30;;;;;;5023954;28;20702;-85
2023/03/19 01:41:26;;;;;;;8.50;3.33;;;9.00;97.30;;;;;;5023673;28;20259;-85
2023/03/19 01:43:52;;;;;;;4.40;3.40;;;9.00;97.30;;;;;;5018467;28;20444;-86
2023/03/19 01:46:31;;;;;;;6.43;5.33;;;9.00;97.30;;;;;;5025822;28;20478;-85
2023/03/19 01:49:06;;;;;;;10.37;4.87;;;9.00;97.30;;;;;;5032334;23;20246;-85
2023/03/19 01:51:53;;;;;;;;;;;;;;;;;;;;;
2023/03/19 01:54:36;;;;;;;;;;;;;;;;;;;;;
2023/03/19 01:57:45;;;;;;;6.33;4.83;;;9.00;97.30;;;;;;5028566;28;20422;-85
2023/03/19 02:00:14;;;;;;;7.90;4.60;;;9.00;97.30;;;;;;5023458;28;20447;-84
2023/03/19 02:05:54;;;;;;;5.23;4.93;;;9.00;97.30;;;;;;5007268;28;20411;-85
2023/03/19 02:08:23;;;;;;;13.23;5.43;;;9.00;97.30;;;;;;4985497;28;20461;-85
2023/03/19 02:11:04;;;;;;;7.70;3.90;;;9.10;97.30;;;;;;4991512;28;20607;-85
2023/03/19 02:13:34;;;;;;;4.70;3.40;;;9.10;97.30;;;;;;4990927;28;20427;-85
2023/03/19 02:16:43;;;;;;;11.30;5.00;;;9.10;97.30;;;;;;4992054;28;20506;-84
2023/03/19 02:19:16;;;;;;;8.70;3.73;;;9.10;97.30;;;;;;5017598;28;20538;-85
2023/03/19 02:21:44;;;;;;;4.10;3.80;;;9.10;97.30;;;;;;5026734;28;20424;-86
2023/03/19 02:24:35;;;;;;;5.27;4.93;;;9.10;97.30;;;;;;5026327;28;20420;-86
2023/03/19 02:27:43;;;;;;;11.53;3.73;;;9.10;97.30;;;;;;5019445;28;20411;-84
2023/03/19 02:30:26;;;;;;;4.80;3.10;;;9.00;97.30;;;;;;5010194;28;20506;-86
2023/03/19 02:32:51;;;;;;;8.60;4.23;;;9.00;97.30;;;;;;5028444;28;20973;-84
2023/03/19 02:35:17;;;;;;;5.03;4.77;;;9.00;97.30;;;;;;5024201;28;20419;-85
2023/03/19 02:37:43;;;;;;;4.90;4.67;;;9.00;97.30;;;;;;5014829;28;20205;-86
2023/03/19 02:40:18;;;;;;;11.43;3.93;;;9.00;97.30;;;;;;5028438;28;20458;-86
2023/03/19 02:42:44;;;;;;;6.07;4.93;;;9.00;97.30;;;;;;5028319;28;20248;-86
2023/03/19 02:45:10;;;;;;;6.30;3.47;;;9.00;97.30;;;;;;5014745;28;20428;-86
2023/03/19 02:47:36;;;;;;;4.80;3.33;;;9.00;97.30;;;;;;5025989;28;20467;-86
2023/03/19 02:50:01;;;;;;;4.63;3.57;;;9.00;97.30;;;;;;5015444;28;20177;-85
2023/03/19 02:52:27;;;;;;;5.37;3.67;;;9.00;97.30;;;;;;5031409;28;20216;-85
2023/03/19 02:54:52;;;;;;;5.70;3.83;;;8.90;97.30;;;;;;5025975;28;20433;-85
2023/03/19 02:57:18;;;;;;;5.40;4.30;;;8.90;97.30;;;;;;5038246;28;20212;-86
2023/03/19 02:59:43;;;;;;;10.80;4.13;;;8.90;97.30;;;;;;5020023;28;20267;-85
2023/03/19 03:02:09;;;;;;;3.73;3.47;;;8.90;97.30;;;;;;5029539;28;20660;-85
2023/03/19 03:04:36;;;;;;;22.10;5.70;;;8.90;97.30;;;;;;5024811;28;20185;-85
2023/03/19 03:07:02;;;;;;;8.03;5.57;;;8.90;97.30;;;;;;5019518;28;20291;-85
2023/03/19 03:09:28;;;;;;;2.70;2.20;;;8.80;97.30;;;;;;5032339;28;20941;-86
2023/03/19 03:11:53;;;;;;;4.40;3.30;;;8.80;97.30;;;;;;5017950;28;20424;-85
2023/03/19 03:14:19;;;;;;;2.50;2.23;;;8.80;97.30;;;;;;5031047;28;20560;-85
2023/03/19 03:16:45;;;;;;;7.77;4.60;;;8.70;97.30;;;;;;5034779;28;20176;-85
2023/03/19 03:19:10;;;;;;;5.27;4.23;;;8.70;97.30;;;;;;5029266;28;20639;-85
2023/03/19 03:21:36;;;;;;;7.03;2.90;;;8.70;97.30;;;;;;5011278;28;20219;-85
2023/03/19 03:24:02;;;;;;;5.30;3.47;;;8.60;97.30;;;;;;5027887;28;20264;-85
2023/03/19 03:26:27;;;;;;;8.73;3.97;;;8.60;97.30;;;;;;5025416;28;20189;-86
2023/03/19 03:28:53;;;;;;;14.33;3.73;;;8.60;97.30;;;;;;5015346;28;20288;-85
2023/03/19 03:31:18;;;;;;;5.87;4.00;;;8.60;97.30;;;;;;5022142;28;20328;-85
2023/03/19 03:33:44;;;;;;;9.17;5.00;;;8.70;97.30;;;;;;5019444;28;20685;-85
2023/03/19 03:36:11;;;;;;;5.63;3.97;;;8.80;97.30;;;;;;5029208;28;20203;-85
2023/03/19 03:38:36;;;;;;;12.80;4.47;;;8.80;97.30;;;;;;5025545;28;20522;-85
2023/03/19 03:41:02;;;;;;;3.73;2.90;;;8.90;97.30;;;;;;5028525;28;20530;-85
2023/03/19 03:43:27;;;;;;;7.60;5.57;;;8.90;97.30;;;;;;5018060;28;20185;-85
2023/03/19 03:45:53;;;;;;;2.97;2.83;;;8.90;97.30;;;;;;5021487;28;20532;-85
2023/03/19 03:48:19;;;;;;;4.23;3.30;;;8.90;97.30;;;;;;5022068;28;20713;-85
2023/03/19 03:50:44;;;;;;;8.60;3.90;;;9.00;97.30;;;;;;5031519;28;20187;-85
2023/03/19 03:53:11;;;;;;;3.90;3.40;;;8.90;97.30;;;;;;5025850;28;20180;-85
2023/03/19 03:55:37;;;;;;;11.50;3.77;;;8.90;97.30;;;;;;5030596;28;20173;-85
2023/03/19 03:58:03;;;;;;;7.93;3.20;;;8.90;97.30;;;;;;5028928;28;20500;-85
2023/03/19 04:00:35;;;;;;;7.03;3.73;;;8.90;97.30;;;;;;5025313;28;20205;-85
2023/03/19 04:03:14;;;;;;;9.67;4.00;;;8.90;97.30;;;;;;5025884;28;20519;-84
2023/03/19 04:05:52;;;;;;;6.83;3.30;;;8.90;97.30;;;;;;5035647;28;20494;-85
2023/03/19 04:08:41;;;;;;;3.73;3.60;;;8.90;97.30;;;;;;5024684;28;20482;-85
2023/03/19 04:11:14;;;;;;;5.40;3.23;;;8.90;97.30;;;;;;5016951;28;20428;-85
2023/03/19 04:13:42;;;;;;;6.93;3.50;;;8.90;97.30;;;;;;5032447;28;20431;-85
2023/03/19 04:16:14;;;;;;;4.33;3.50;;;8.90;97.30;;;;;;5031290;28;20415;-85
2023/03/19 04:19:14;;;;;;;3.80;3.60;;;8.90;97.30;;;;;;5032419;22;20492;-84
2023/03/19 04:25:11;;;;;;;3.63;3.10;;;9.00;97.30;;;;;;4978262;28;20526;-85
2023/03/19 04:27:45;;;;;;;2.07;1.93;;;8.90;97.30;;;;;;5010565;28;20526;-86
2023/03/19 04:30:14;;;;;;;3.80;3.60;;;8.90;97.30;;;;;;5005869;28;20184;-85
2023/03/19 04:33:12;;;;;;;3.90;3.67;;;8.90;97.30;;;;;;5013424;28;20918;-85
2023/03/19 04:36:04;;;;;;;4.00;3.77;;;9.00;97.30;;;;;;5005611;28;20465;-86
2023/03/19 04:38:44;;;;;;;7.63;3.23;;;9.00;97.30;;;;;;5001890;28;20824;-85
2023/03/19 04:41:25;;;;;;;;;;;;;;;;;;;;;
2023/03/19 04:43:54;;;;;;;3.80;2.60;;;9.10;97.30;;;;;;5027383;28;20759;-84
2023/03/19 04:46:44;;;;;;;2.70;2.30;;;9.10;97.30;;;;;;5004031;28;20482;-85
2023/03/19 04:49:13;;;;;;;8.40;3.00;;;9.20;97.30;;;;;;5009543;28;20490;-85
2023/03/19 04:51:38;;;;;;;6.37;4.37;;;9.10;97.30;;;;;;5002113;28;20503;-86
2023/03/19 04:54:04;;;;;;;2.80;2.60;;;9.10;97.30;;;;;;4999310;28;20503;-86
2023/03/19 04:56:30;;;;;;;6.93;4.00;;;9.10;97.30;;;;;;5012303;28;20176;-83
2023/03/19 04:58:56;;;;;;;5.03;2.90;;;9.10;97.30;;;;;;5009470;28;20471;-86
2023/03/19 05:01:22;;;;;;;3.80;2.83;;;9.00;97.30;;;;;;4998568;28;20200;-86
2023/03/19 05:03:47;;;;;;;9.20;4.20;;;8.90;97.30;;;;;;5005515;28;20277;-86
2023/03/19 05:06:13;;;;;;;5.07;3.50;;;8.80;97.30;;;;;;5009391;28;20188;-86
2023/03/19 05:08:39;;;;;;;10.60;4.60;;;8.60;97.30;;;;;;5011337;28;20207;-86
2023/03/19 05:11:04;;;;;;;8.80;3.93;;;8.60;97.30;;;;;;5004186;28;20180;-86
2023/03/19 05:13:30;;;;;;;3.30;3.10;;;8.50;97.30;;;;;;5012776;28;20180;-86
2023/03/19 05:15:56;;;;;;;6.93;3.63;;;8.50;97.30;;;;;;5005318;28;20750;-86
2023/03/19 05:18:22;;;;;;;4.00;2.70;;;8.40;97.30;;;;;;5004573;28;20228;-84
2023/03/19 05:20:48;;;;;;;4.17;3.93;;;8.40;97.30;;;;;;4999758;28;20455;-85
2023/03/19 05:23:13;;;;;;;11.23;5.13;;;8.30;97.30;;;;;;5007314;28;20423;-85
2023/03/19 05:25:41;;;;;;;6.47;3.67;;;8.10;97.30;;;;;;5008508;28;20645;-86
2023/03/19 05:28:07;;;;;;;5.30;3.57;;;8.20;97.30;;;;;;4996798;28;20217;-86
2023/03/19 05:30:33;;;;;;;3.80;3.60;;;8.10;97.30;;;;;;5003533;28;20459;-86
2023/03/19 05:32:59;;;;;;;2.63;2.43;;;8.10;97.30;;;;;;5001374;28;20180;-86
2023/03/19 05:35:26;;;;;;;5.10;2.53;;;8.10;97.30;;;;;;5011519;28;20434;-86
2023/03/19 05:37:52;;;;;;;2.90;2.57;;;8.10;97.30;;;;;;5005049;28;20443;-86
2023/03/19 05:40:18;;;;;;;3.10;2.90;;;8.10;97.30;;;;;;5007476;28;20462;-86
2023/03/19 05:42:43;;;;;;;5.27;4.33;;;8.00;97.30;;;;;;5008107;28;20463;-86
2023/03/19 05:45:10;;;;;;;4.50;3.27;;;8.00;97.30;;;;;;5005828;28;20656;-86
2023/03/19 05:47:35;;;;;;;4.60;3.30;;;8.00;97.30;;;;;;5003594;28;20610;-86
2023/03/19 05:50:01;;;;;;;4.13;3.90;;;8.00;97.30;;;;;;5000023;28;20416;-85
2023/03/19 05:52:27;;;;;;;10.70;4.13;;;8.00;97.30;;;;;;4997148;28;20878;-85
2023/03/19 05:54:52;;;;;;;13.57;3.30;;;8.00;97.30;;;;;;5009105;28;20212;-86
2023/03/19 05:57:18;;;;;;;3.80;2.50;;;8.10;97.30;;;;;;5005051;28;21609;-85
2023/03/19 05:59:43;;;;;;;7.10;4.57;;;8.20;97.30;;;;;;5010960;28;20896;-86
2023/03/19 06:02:09;;;;;;;4.27;3.87;;;8.20;97.30;;;;;;5008024;28;20639;-85
2023/03/19 06:04:35;;;;;;;4.10;2.80;;;8.30;97.30;;;;;;5011949;28;20172;-86
2023/03/19 06:07:00;;;;;;;1.90;1.80;;;8.30;97.30;;;;;;5008078;28;20173;-85
2023/03/19 06:09:26;;;;;;;2.60;2.40;;;8.40;97.30;;;;;;5025330;28;20626;-86
2023/03/19 06:11:51;;;;;;;10.80;3.37;;;8.40;97.30;;;;;;5008054;28;20176;-85
2023/03/19 06:14:17;;;;;;;3.37;2.57;;;8.50;97.30;;;;;;5006938;28;20173;-86
2023/03/19 06:16:43;;;;;;;3.47;3.27;;;8.60;97.30;;;;;;5030376;28;20189;-85
2023/03/19 06:19:08;;;;;;;5.37;2.60;;;8.60;97.30;;;;;;5026996;28;20224;-85
2023/03/19 06:21:34;;;;;;;7.03;3.40;;;8.60;97.30;;;;;;5017021;28;20273;-86
2023/03/19 06:24:00;;;;;;;6.37;6.00;;;8.50;97.30;;;;;;5016696;28;20285;-86
2023/03/19 06:26:26;;;;;;;4.00;2.63;;;8.60;97.30;;;;;;5016871;28;20473;-85
2023/03/19 06:28:52;;;;;;;8.00;3.73;;;8.60;97.30;;;;;;5012455;28;20204;-86
2023/03/19 06:31:17;;;;;;;6.60;3.70;;;8.70;97.30;;;;;;5017860;28;20403;-86
2023/03/19 06:33:43;;;;;;;4.47;3.83;;;8.80;97.30;;;;;;5030688;28;20623;-86
2023/03/19 06:36:09;;;;;;;7.97;5.10;;;8.90;97.30;;;;;;5009577;28;20185;-85
2023/03/19 06:38:35;;;;;;;2.60;2.47;;;9.00;97.30;;;;;;5006844;28;20679;-86
2023/03/19 06:41:01;;;;;;;8.00;3.50;;;9.10;97.30;;;;;;5013557;28;20666;-85
2023/03/19 06:43:27;;;;;;;2.67;2.47;;;9.20;97.30;;;;;;5007685;28;20655;-85
2023/03/19 06:45:56;;;;;;;6.93;3.40;;;9.40;97.30;;;;;;5015327;28;20173;-85
2023/03/19 06:48:25;;;;;;;11.80;3.07;;;9.50;97.30;;;;;;5009787;28;20731;-85
2023/03/19 06:50:53;;;;;;;3.40;2.57;;;9.60;97.30;;;;;;5008687;28;20856;-85
2023/03/19 06:53:43;;;;;;;6.03;2.87;;;9.70;97.30;;;;;;5005451;28;20467;-85
2023/03/19 06:56:13;;;;;;;6.57;4.17;;;9.90;97.30;;;;;;5014160;28;20434;-85
2023/03/19 06:59:03;;;;;;;5.73;3.43;;;10.00;97.30;;;;;;5014355;28;20435;-84
2023/03/19 07:01:35;;;;;;;13.27;4.43;;;10.10;97.30;;;;;;5011010;28;20539;-85
2023/03/19 07:04:04;;;;;;;2.60;2.33;;;10.30;97.30;;;;;;5007090;28;20469;-85
2023/03/19 07:07:04;;;;;;;3.00;2.80;;;10.40;97.30;;;;;;5012561;28;20414;-85
2023/03/19 07:09:32;;;;;;;5.50;3.60;;;10.40;97.30;;;;;;5026111;28;20519;-85
2023/03/19 07:12:00;;;;;;;5.40;2.67;;;10.50;97.10;;;;;;5006827;28;20439;-85
2023/03/19 07:14:28;;;;;;;4.03;3.80;;;10.60;97.30;;;;;;5014505;28;20415;-85
2023/03/19 07:16:53;;;;;;;4.53;3.00;;;10.60;97.20;;;;;;5007798;28;20427;-85
2023/03/19 07:19:19;;;;;;;5.57;3.27;;;10.70;96.80;;;;;;5008737;28;20806;-85
2023/03/19 07:21:45;;;;;;;5.43;3.13;;;10.80;96.60;;;;;;5029444;28;20208;-85
2023/03/19 07:24:11;;;;;;;8.83;4.20;;;10.90;96.20;;;;;;5011267;28;20184;-86
2023/03/19 07:26:36;;;;;;;7.30;3.63;;;11.10;95.90;;;;;;5032549;28;20426;-85
2023/03/19 07:29:02;;;;;;;5.33;2.60;;;11.20;95.20;;;;;;5008082;28;20200;-85
2023/03/19 07:31:27;;;;;;;9.33;3.37;;;11.30;94.80;;;;;;5023582;28;20186;-85
2023/03/19 07:33:53;;;;;;;12.27;4.57;;;11.50;94.30;;;;;;5004358;28;20181;-86
2023/03/19 07:36:20;;;;;;;8.03;3.63;;;11.60;94.00;;;;;;5015234;28;20271;-85
2023/03/19 07:38:45;;;;;;;9.10;3.40;;;11.70;94.00;;;;;;5014672;28;20205;-85
2023/03/19 07:41:14;;;;;;;4.87;3.17;;;11.80;93.70;;;;;;5011051;28;20475;-85
2023/03/19 07:43:45;;;;;;;6.30;3.20;;;12.00;93.30;;;;;;5015480;28;20183;-85
2023/03/19 07:46:33;;;;;;;4.03;3.07;;;12.00;93.20;;;;;;5009968;28;20461;-85
2023/03/19 07:49:53;;;;;;;3.10;2.90;;;12.20;92.90;;;;;;5028876;22;20917;-84
2023/03/19 07:52:25;;;;;;;3.73;2.63;;;12.30;92.90;;;;;;5052594;28;20425;-86
2023/03/19 07:54:54;;;;;;;6.47;4.10;;;12.50;92.70;;;;;;5060098;28;20563;-86
2023/03/19 07:57:55;;;;;;;2.50;2.30;;;12.60;91.90;;;;;;5154800;22;20532;-84
2023/03/19 08:00:24;;;;;;;5.73;3.23;;;12.70;92.00;;;;;;5011802;28;20467;-83
2023/03/19 08:02:52;;;;;;;16.77;5.13;;;12.80;91.70;;;;;;4990158;28;20994;-85
2023/03/19 08:05:20;;;;;;;3.80;3.23;;;12.90;92.00;;;;;;4992447;28;20486;-85
2023/03/19 08:07:48;;;;;;;3.37;3.20;;;13.00;91.40;;;;;;5020387;28;20950;-85
2023/03/19 08:10:17;;;;;;;3.30;3.13;;;13.00;91.20;;;;;;5016871;28;20525;-84
2023/03/19 08:12:45;;;;;;;5.10;3.00;;;13.00;91.60;;;;;;5008416;28;20428;-85
2023/03/19 08:15:14;;;;;;;10.00;2.80;;;13.10;91.90;;;;;;5011413;28;20946;-83
2023/03/19 08:17:45;;;;;;;11.90;3.37;;;13.10;91.20;;;;;;5011756;28;20498;-84
2023/03/19 08:20:15;;;;;;;4.63;4.00;;;13.20;91.10;;;;;;5009400;28;20551;-84
2023/03/19 08:25:53;;;;;;;3.83;3.67;;;13.50;90.60;;;;;;5006564;28;20902;-85
2023/03/19 08:31:04;;;;;;;2.80;2.67;;;13.80;90.70;;;;;;5048177;28;20477;-85
2023/03/19 08:33:33;;;;;;;22.53;5.77;;;14.00;89.60;;;;;;5042539;28;20453;-85
2023/03/19 08:36:25;;;;;;;3.13;2.37;;;14.10;89.40;;;;;;5048722;28;20415;-86
2023/03/19 08:38:53;;;;;;;3.03;2.13;;;14.20;88.80;;;;;;5057227;28;20991;-86
2023/03/19 08:41:20;;;;;;;2.43;2.17;;;14.30;88.20;;;;;;5060015;28;20555;-85
2023/03/19 08:43:45;;;;;;;2.43;2.03;;;14.50;88.80;;;;;;5065637;28;20507;-85
2023/03/19 08:46:11;;;;;;;4.90;2.60;;;14.70;87.90;;;;;;5074186;28;20520;-86
2023/03/19 08:48:37;;;;;;;3.60;2.93;;;14.90;88.30;;;;;;5063421;28;20194;-86
2023/03/19 08:51:03;;;;;;;4.33;2.80;;;15.10;87.30;;;;;;5080935;28;20175;-86
2023/03/19 08:53:29;;;;;;;3.10;2.87;;;15.20;86.60;;;;;;5066985;28;20609;-86
2023/03/19 08:55:59;;;;;;;2.27;2.07;;;15.20;86.40;;;;;;5088622;28;20470;-86
2023/03/19 08:58:25;;;;;;;14.23;5.03;;;15.20;86.30;;;;;;5071532;28;20978;-86
2023/03/19 09:00:52;;;;;;;2.17;2.00;;;15.20;86.40;;;;;;5085696;28;20511;-86
2023/03/19 09:03:18;;;;;;;6.37;2.90;;;15.20;86.70;;;;;;5069725;28;20431;-86
2023/03/19 09:05:44;;;;;;;2.33;2.13;;;15.20;86.50;;;;;;5082194;28;20922;-85
2023/03/19 09:08:10;;;;;;;5.83;2.07;;;15.20;86.50;;;;;;5084956;28;20433;-85
2023/03/19 09:10:36;;;;;;;3.60;3.30;;;15.30;87.20;;;;;;5089932;28;20265;-86
2023/03/19 09:13:02;;;;;;;2.70;1.97;;;15.40;87.60;;;;;;5067334;28;20927;-86
2023/03/19 09:15:28;;;;;;;3.20;2.80;;;15.40;86.60;;;;;;5067410;28;20424;-86
2023/03/19 09:17:53;;;;;;;5.47;3.80;;;15.50;87.10;;;;;;5064306;28;20201;-86
2023/03/19 09:20:19;;;;;;;6.83;3.37;;;15.50;86.70;;;;;;5059987;28;20452;-86
2023/03/19 09:22:45;;;;;;;2.03;1.77;;;15.50;87.40;;;;;;5067013;28;20219;-86
2023/03/19 09:25:13;;;;;;;2.97;2.77;;;15.60;87.30;;;;;;5072513;28;20545;-85
2023/03/19 09:27:46;;;;;;;2.00;1.63;;;15.60;87.50;;;;;;5084776;28;20202;-84
2023/03/19 09:30:14;;;;;;;3.10;2.47;;;15.70;87.20;;;;;;5060426;28;20458;-85
2023/03/19 09:32:46;;;;;;;1.87;1.80;;;15.70;87.30;;;;;;5060300;28;20989;-85
2023/03/19 09:35:15;;;;;;;24.27;3.10;;;15.70;87.00;;;;;;5066783;28;20476;-86
2023/03/19 09:38:15;;;;;;;4.73;2.50;;;15.80;87.80;;;;;;5061710;28;20445;-84
2023/03/19 09:41:26;;;;;;;;;;;;;;;;;;;;;
2023/03/19 09:44:15;;;;;;;3.80;2.70;;;15.90;87.60;;;;;;5064427;28;20410;-86
2023/03/19 09:47:15;;;;;;;1.80;1.70;;;15.90;86.10;;;;;;5060357;28;20928;-84
2023/03/19 09:49:49;;;;;;;4.63;2.50;;;15.80;85.60;;;;;;5049607;28;20820;-86
2023/03/19 09:52:29;;;;;;;3.90;2.33;;;15.70;85.00;;;;;;5062829;28;20432;-86
2023/03/19 09:54:59;;;;;;;2.53;2.37;;;15.70;85.20;;;;;;5070925;28;20430;-86
2023/03/19 09:57:28;;;;;;;6.67;3.23;;;15.70;85.10;;;;;;5087437;28;20441;-86
2023/03/19 09:59:55;;;;;;;1.40;1.30;;;15.80;85.30;;;;;;5067322;28;20463;-86
2023/03/19 10:02:31;;;;;;;3.27;2.97;;;15.80;84.60;;;;;;5041982;28;20495;-86
2023/03/19 10:05:18;;;;;;;3.50;1.90;;;15.90;85.20;;;;;;5055787;28;20431;-86
2023/03/19 10:07:46;;;;;;;2.43;2.23;;;16.00;84.80;;;;;;5052702;28;20861;-86
2023/03/19 10:10:36;;;;;;;3.33;2.30;;;16.10;84.20;;;;;;5069417;28;20508;-85
2023/03/19 10:13:17;;;;;;;2.97;2.27;;;16.10;85.00;;;;;;5048792;28;20516;-86
2023/03/19 10:15:44;;;;;;;8.00;2.40;;;16.20;84.90;;;;;;5066101;28;20417;-85
2023/03/19 10:18:28;;;;;;;1.80;1.70;;;16.30;85.40;;;;;;5072460;28;20437;-86
2023/03/19 10:21:03;;;;;;;3.13;2.93;;;16.40;84.60;;;;;;5072106;28;20460;-86
2023/03/19 10:23:40;;;;;;;9.00;3.93;;;16.40;84.80;;;;;;5067378;28;20424;-84
2023/03/19 10:26:15;;;;;;;3.37;3.17;;;16.40;84.50;;;;;;5069171;28;20842;-85
2023/03/19 10:28:43;;;;;;;1.87;1.70;;;16.40;84.60;;;;;;5063727;28;20486;-85
2023/03/19 10:31:21;;;;;;;5.27;2.40;;;16.50;84.50;;;;;;5072093;28;20454;-85
2023/03/19 10:34:16;;;;;;;9.40;3.17;;;16.50;84.70;;;;;;5069446;28;20511;-85
2023/03/19 10:36:42;;;;;;;1.80;1.70;;;16.50;84.70;;;;;;5085214;28;20441;-85
2023/03/19 10:39:07;;;;;;;2.13;1.60;;;16.50;84.60;;;;;;5066028;28;20483;-86
2023/03/19 10:41:42;;;;;;;2.07;1.80;;;16.50;84.70;;;;;;5070585;28;20674;-85
2023/03/19 10:44:26;;;;;;;3.57;2.40;;;16.60;84.80;;;;;;5087125;28;20189;-85
2023/03/19 10:46:51;;;;;;;4.63;2.10;;;16.60;85.10;;;;;;5072784;28;20452;-85
2023/03/19 10:49:17;;;;;;;3.03;2.90;;;16.60;84.90;;;;;;5092870;28;20472;-85
2023/03/19 10:51:45;;;;;;;7.60;3.67;;;16.70;84.60;;;;;;5084967;28;20239;-85
2023/03/19 10:54:25;;;;;;;5.07;2.37;;;16.70;84.50;;;;;;5058978;28;20183;-86
2023/03/19 10:56:55;;;;;;;1.87;1.80;;;16.60;85.00;;;;;;5059298;28;20788;-86
2023/03/19 10:59:29;;;;;;;2.00;1.90;;;16.60;84.70;;;;;;5058580;28;20532;-86
2023/03/19 11:01:58;;;;;;;2.80;2.27;;;16.60;84.50;;;;;;5065335;28;20471;-86
2023/03/19 11:04:31;;;;;;;4.53;2.03;;;16.60;84.70;;;;;;5088545;28;20828;-86
2023/03/19 11:07:10;;;;;;;3.57;2.63;;;16.70;84.30;;;;;;5084877;28;20460;-86
2023/03/19 11:09:36;;;;;;;2.00;1.90;;;16.80;84.40;;;;;;5068268;28;20798;-86
2023/03/19 11:12:25;;;;;;;3.03;2.83;;;16.90;83.90;;;;;;5083353;28;20428;-86
2023/03/19 11:14:56;;;;;;;2.20;2.03;;;17.00;84.70;;;;;;5061718;28;20444;-86
2023/03/19 11:17:35;;;;;;;2.40;2.10;;;17.00;85.60;;;;;;5091701;28;20463;-86
2023/03/19 11:20:14;;;;;;;5.53;2.40;;;17.00;85.40;;;;;;5063506;28;20550;-86
2023/03/19 11:22:40;;;;;;;14.37;2.60;;;17.00;85.60;;;;;;5087095;28;20474;-86
2023/03/19 11:25:24;;;;;;;2.10;1.73;;;16.90;85.00;;;;;;5075179;28;20449;-86
2023/03/19 11:28:15;;;;;;;2.63;2.27;;;16.80;84.30;;;;;;5065957;28;20449;-86
2023/03/19 11:30:45;;;;;;;2.13;1.97;;;16.80;85.10;;;;;;5088310;28;20481;-86
2023/03/19 11:33:44;;;;;;;5.57;2.07;;;16.90;84.50;;;;;;5082247;28;20493;-85
2023/03/19 11:36:26;;;;;;;4.10;3.40;;;16.90;85.60;;;;;;5062622;28;20423;-86
2023/03/19 11:39:24;;;;;;;2.13;1.97;;;17.00;86.40;;;;;;5061286;28;21041;-86
2023/03/19 11:42:26;;;;;;;3.87;2.83;;;16.90;87.10;;;;;;5061726;28;20469;-86
2023/03/19 11:45:15;;;;;;;2.13;1.97;;;17.00;86.40;;;;;;5064420;28;20408;-86
2023/03/19 11:47:58;;;;;;;4.80;2.93;;;17.20;86.40;;;;;;5078243;28;20596;-86
2023/03/19 11:50:39;;;;;;;7.20;2.90;;;17.40;85.00;;;;;;5070224;28;20448;-85
2023/03/19 11:53:34;;;;;;;15.57;3.53;;;17.50;85.00;;;;;;5067560;28;20944;-86
2023/03/19 11:56:33;;;;;;;12.43;2.07;;;17.80;83.80;;;;;;5058430;28;20977;-85
2023/03/19 11:59:41;;;;;;;2.80;2.63;;;18.00;83.90;;;;;;5065259;28;20440;-86
2023/03/19 12:02:24;;;;;;;2.50;2.30;;;18.10;83.20;;;;;;5059452;28;20421;-86
2023/03/19 12:05:22;;;;;;;2.50;1.83;;;17.90;83.40;;;;;;5061476;28;20505;-86
2023/03/19 12:07:58;;;;;;;5.97;2.77;;;17.70;84.20;;;;;;5030807;28;20521;-86
2023/03/19 12:10:37;;;;;;;4.63;2.20;;;17.40;84.40;;;;;;5069975;28;20425;-86
2023/03/19 12:13:21;;;;;;;2.60;2.40;;;17.40;85.10;;;;;;5060648;28;20417;-86
2023/03/19 12:16:07;;;;;;;1.60;1.50;;;17.40;85.40;;;;;;5076312;28;20418;-86
2023/03/19 12:19:00;;;;;;;2.63;2.50;;;17.50;85.60;;;;;;5066121;28;20446;-86
2023/03/19 12:21:57;;;;;;;7.53;3.77;;;17.60;85.40;;;;;;5064725;28;20801;-86
2023/03/19 12:24:57;;;;;;;5.63;3.00;;;17.70;85.60;;;;;;5067599;28;20950;-86
2023/03/19 12:27:38;;;;;;;3.33;2.80;;;18.00;84.90;;;;;;5068897;28;20435;-86
2023/03/19 12:30:30;;;;;;;4.10;2.23;;;18.20;84.20;;;;;;5064983;28;20508;-85
2023/03/19 12:33:23;;;;;;;6.20;2.73;;;18.20;83.90;;;;;;5085249;28;20428;-86
2023/03/19 12:35:52;;;;;;;1.87;1.87;;;18.20;84.70;;;;;;5071650;28;20965;-85
2023/03/19 12:38:36;;;;;;;5.30;2.43;;;18.10;84.90;;;;;;5068894;28;20494;-86
2023/03/19 12:41:09;;;;;;;2.20;2.00;;;17.90;84.70;;;;;;5068163;28;20456;-86
2023/03/19 12:43:44;;;;;;;4.50;3.03;;;17.70;85.20;;;;;;5068918;28;20717;-86
2023/03/19 12:46:15;;;;;;;4.07;1.77;;;17.50;85.60;;;;;;5059749;28;20959;-85
2023/03/19 12:49:06;;;;;;;2.00;1.90;;;17.50;86.90;;;;;;5064501;28;20792;-86
2023/03/19 12:51:37;;;;;;;2.43;2.20;;;17.30;87.20;;;;;;5072331;28;20767;-87
2023/03/19 12:54:12;;;;;;;1.93;1.83;;;17.20;88.00;;;;;;5066357;28;20420;-86
2023/03/19 12:56:54;;;;;;;1.50;1.40;;;17.10;88.20;;;;;;5071146;28;20510;-86
2023/03/19 12:59:54;;;;;;;1.23;1.13;;;16.90;89.00;;;;;;5058499;28;20659;-87
2023/03/19 13:02:29;;;;;;;1.50;1.40;;;16.80;89.90;;;;;;5061104;28;20482;-87
2023/03/19 13:05:01;;;;;;;5.87;2.70;;;16.60;91.50;;;;;;5063845;28;20423;-87
2023/03/19 13:07:53;;;;;;;3.20;1.63;;;16.50;92.50;;;;;;5071062;28;20441;-87
2023/03/19 13:10:21;;;;;;;2.77;1.73;;;16.30;92.80;;;;;;5070207;28;20469;-87
2023/03/19 13:12:49;;;;;;;1.53;1.43;;;16.10;94.00;;;;;;5065876;28;20412;-87
2023/03/19 13:15:34;;;;;;;1.80;1.73;;;16.00;94.60;;;;;;5064319;28;20935;-86
2023/03/19 13:18:18;;;;;;;7.53;1.93;;;16.00;94.80;;;;;;5067332;28;20646;-87
2023/03/19 13:21:02;;;;;;;3.27;3.00;;;15.90;94.60;;;;;;5065085;28;20448;-87
2023/03/19 13:23:32;;;;;;;1.67;1.20;;;15.90;95.60;;;;;;5066871;28;20478;-87
2023/03/19 13:26:05;;;;;;;5.07;2.90;;;16.00;95.70;;;;;;5056338;28;20417;-87
2023/03/19 13:28:52;;;;;;;3.00;2.80;;;16.00;95.30;;;;;;5057726;28;20544;-87
2023/03/19 13:31:25;;;;;;;4.37;1.77;;;16.00;95.20;;;;;;5089333;28;20767;-86
2023/03/19 13:34:13;;;;;;;1.83;1.03;;;15.80;94.60;;;;;;5056559;28;20409;-87
2023/03/19 13:36:40;;;;;;;0.90;0.80;;;15.60;94.40;;;;;;5085865;28;20420;-87
2023/03/19 13:39:17;;;;;;;1.10;1.00;;;15.20;94.50;;;;;;5078274;28;20862;-86
2023/03/19 13:41:42;;;;;;;1.63;1.50;;;14.80;95.30;;;;;;5068001;28;20988;-86